sensor_id;sensor_type;location;lat;lon;timestamp;P1;durP1;ratioP1;P2;durP2;ratioP2
31594;SDS011;18200;48.726;8.892;2023-08-17T00:01:35;12.02;;;6.13;;
31594;SDS011;18200;48.726;8.892;2023-08-17T00:05:35;9.55;;;6.28;;
31594;SDS011;18200;48.726;8.892;2023-08-17T00:09:35;10.30;;;6.65;;
31594;SDS011;18200;48.726;8.892;2023-08-17T00:13:36;8.13;;;5.40;;
31594;SDS011;18200;48.726;8.892;2023-08-17T00:17:36;9.35;;;5.85;;
31594;SDS011;18200;48.726;8.892;2023-08-17T00:21:37;10.25;;;6.47;;
31594;SDS011;18200;48.726;8.892;2023-08-17T00:25:37;10.82;;;7.68;;
31594;SDS011;18200;48.726;8.892;2023-08-17T00:29:38;10.65;;;7.40;;
31594;SDS011;18200;48.726;8.892;2023-08-17T00:33:38;6.78;;;5.95;;
31594;SDS011;18200;48.726;8.892;2023-08-17T00:37:38;12.55;;;5.97;;
31594;SDS011;18200;48.726;8.892;2023-08-17T00:41:39;9.38;;;6.57;;
31594;SDS011;18200;48.726;8.892;2023-08-17T00:45:39;10.07;;;6.13;;
31594;SDS011;18200;48.726;8.892;2023-08-17T00:49:40;6.82;;;5.38;;
31594;SDS011;18200;48.726;8.892;2023-08-17T00:53:41;10.75;;;6.45;;
31594;SDS011;18200;48.726;8.892;2023-08-17T00:57:42;12.30;;;6.75;;
31594;SDS011;18200;48.726;8.892;2023-08-17T01:01:43;6.65;;;5.32;;
31594;SDS011;18200;48.726;8.892;2023-08-17T01:05:44;9.15;;;6.18;;
31594;SDS011;18200;48.726;8.892;2023-08-17T01:09:44;11.02;;;6.85;;
31594;SDS011;18200;48.726;8.892;2023-08-17T01:13:47;12.73;;;7.55;;
31594;SDS011;18200;48.726;8.892;2023-08-17T01:22:17;11.48;;;5.70;;
31594;SDS011;18200;48.726;8.892;2023-08-17T01:26:21;6.22;;;5.53;;
31594;SDS011;18200;48.726;8.892;2023-08-17T01:30:21;6.35;;;5.35;;
31594;SDS011;18200;48.726;8.892;2023-08-17T01:34:22;7.90;;;6.50;;
31594;SDS011;18200;48.726;8.892;2023-08-17T01:38:25;7.63;;;6.10;;
31594;SDS011;18200;48.726;8.892;2023-08-17T01:42:29;10.63;;;6.53;;
31594;SDS011;18200;48.726;8.892;2023-08-17T01:46:31;9.55;;;6.38;;
31594;SDS011;18200;48.726;8.892;2023-08-17T01:50:33;10.70;;;6.28;;
31594;SDS011;18200;48.726;8.892;2023-08-17T01:54:33;11.40;;;6.70;;
31594;SDS011;18200;48.726;8.892;2023-08-17T01:58:34;16.40;;;8.93;;
31594;SDS011;18200;48.726;8.892;2023-08-17T02:02:34;22.30;;;14.45;;
31594;SDS011;18200;48.726;8.892;2023-08-17T02:06:34;13.85;;;9.25;;
31594;SDS011;18200;48.726;8.892;2023-08-17T02:10:35;19.85;;;13.07;;
31594;SDS011;18200;48.726;8.892;2023-08-17T02:14:36;19.27;;;12.48;;
31594;SDS011;18200;48.726;8.892;2023-08-17T02:18:37;10.15;;;8.60;;
31594;SDS011;18200;48.726;8.892;2023-08-17T02:22:37;10.75;;;9.05;;
31594;SDS011;18200;48.726;8.892;2023-08-17T02:26:38;12.38;;;8.45;;
31594;SDS011;18200;48.726;8.892;2023-08-17T02:30:40;13.75;;;8.88;;
31594;SDS011;18200;48.726;8.892;2023-08-17T02:34:41;12.85;;;9.30;;
31594;SDS011;18200;48.726;8.892;2023-08-17T02:38:41;9.52;;;6.63;;
31594;SDS011;18200;48.726;8.892;2023-08-17T02:42:41;8.63;;;7.25;;
31594;SDS011;18200;48.726;8.892;2023-08-17T02:46:42;9.85;;;7.45;;
31594;SDS011;18200;48.726;8.892;2023-08-17T02:50:42;16.75;;;9.38;;
31594;SDS011;18200;48.726;8.892;2023-08-17T02:54:42;11.30;;;8.13;;
31594;SDS011;18200;48.726;8.892;2023-08-17T02:58:44;9.73;;;7.88;;
31594;SDS011;18200;48.726;8.892;2023-08-17T03:02:44;10.63;;;7.53;;
31594;SDS011;18200;48.726;8.892;2023-08-17T03:06:44;11.65;;;8.20;;
31594;SDS011;18200;48.726;8.892;2023-08-17T03:10:45;10.55;;;8.25;;
31594;SDS011;18200;48.726;8.892;2023-08-17T03:14:45;8.93;;;7.55;;
31594;SDS011;18200;48.726;8.892;2023-08-17T03:18:47;11.35;;;9.60;;
31594;SDS011;18200;48.726;8.892;2023-08-17T03:22:48;8.63;;;7.47;;
31594;SDS011;18200;48.726;8.892;2023-08-17T03:26:48;9.90;;;8.32;;
31594;SDS011;18200;48.726;8.892;2023-08-17T03:30:48;14.75;;;8.18;;
31594;SDS011;18200;48.726;8.892;2023-08-17T03:34:49;9.73;;;6.78;;
31594;SDS011;18200;48.726;8.892;2023-08-17T03:38:49;13.32;;;9.27;;
31594;SDS011;18200;48.726;8.892;2023-08-17T03:42:50;15.43;;;9.10;;
31594;SDS011;18200;48.726;8.892;2023-08-17T03:46:50;16.17;;;9.35;;
31594;SDS011;18200;48.726;8.892;2023-08-17T03:50:54;23.80;;;9.77;;
31594;SDS011;18200;48.726;8.892;2023-08-17T03:54:55;19.25;;;9.45;;
31594;SDS011;18200;48.726;8.892;2023-08-17T03:58:55;17.48;;;9.40;;
31594;SDS011;18200;48.726;8.892;2023-08-17T04:02:56;24.20;;;12.55;;
31594;SDS011;18200;48.726;8.892;2023-08-17T04:06:56;19.95;;;11.48;;
31594;SDS011;18200;48.726;8.892;2023-08-17T04:10:57;24.15;;;11.82;;
31594;SDS011;18200;48.726;8.892;2023-08-17T04:14:57;25.73;;;13.43;;
31594;SDS011;18200;48.726;8.892;2023-08-17T04:18:57;22.77;;;12.77;;
31594;SDS011;18200;48.726;8.892;2023-08-17T04:22:58;20.45;;;11.90;;
31594;SDS011;18200;48.726;8.892;2023-08-17T04:26:58;24.80;;;13.30;;
31594;SDS011;18200;48.726;8.892;2023-08-17T04:31:00;19.75;;;10.75;;
31594;SDS011;18200;48.726;8.892;2023-08-17T04:35:03;24.55;;;13.18;;
31594;SDS011;18200;48.726;8.892;2023-08-17T04:39:04;19.25;;;11.57;;
31594;SDS011;18200;48.726;8.892;2023-08-17T04:43:05;21.42;;;13.00;;
31594;SDS011;18200;48.726;8.892;2023-08-17T04:47:06;18.00;;;10.85;;
31594;SDS011;18200;48.726;8.892;2023-08-17T04:51:06;17.17;;;10.98;;
31594;SDS011;18200;48.726;8.892;2023-08-17T04:55:07;16.60;;;10.38;;
31594;SDS011;18200;48.726;8.892;2023-08-17T04:59:07;17.55;;;10.80;;
31594;SDS011;18200;48.726;8.892;2023-08-17T05:03:07;21.92;;;13.50;;
31594;SDS011;18200;48.726;8.892;2023-08-17T05:07:13;18.58;;;12.55;;
31594;SDS011;18200;48.726;8.892;2023-08-17T05:11:13;21.15;;;12.85;;
31594;SDS011;18200;48.726;8.892;2023-08-17T05:15:14;21.25;;;13.00;;
31594;SDS011;18200;48.726;8.892;2023-08-17T05:19:14;19.40;;;12.20;;
31594;SDS011;18200;48.726;8.892;2023-08-17T05:23:15;21.58;;;13.77;;
31594;SDS011;18200;48.726;8.892;2023-08-17T05:27:15;23.17;;;13.50;;
31594;SDS011;18200;48.726;8.892;2023-08-17T05:31:16;20.75;;;12.90;;
31594;SDS011;18200;48.726;8.892;2023-08-17T05:35:20;20.15;;;12.73;;
31594;SDS011;18200;48.726;8.892;2023-08-17T05:39:21;20.15;;;12.30;;
31594;SDS011;18200;48.726;8.892;2023-08-17T05:43:21;19.02;;;12.20;;
31594;SDS011;18200;48.726;8.892;2023-08-17T05:47:22;17.58;;;10.75;;
31594;SDS011;18200;48.726;8.892;2023-08-17T05:51:22;17.88;;;11.77;;
31594;SDS011;18200;48.726;8.892;2023-08-17T05:55:23;17.77;;;12.20;;
31594;SDS011;18200;48.726;8.892;2023-08-17T05:59:23;20.63;;;13.20;;
31594;SDS011;18200;48.726;8.892;2023-08-17T06:03:23;19.98;;;11.90;;
31594;SDS011;18200;48.726;8.892;2023-08-17T06:07:24;17.08;;;11.65;;
31594;SDS011;18200;48.726;8.892;2023-08-17T06:11:24;15.23;;;9.90;;
31594;SDS011;18200;48.726;8.892;2023-08-17T06:15:25;15.63;;;10.93;;
31594;SDS011;18200;48.726;8.892;2023-08-17T06:19:25;17.40;;;11.15;;
31594;SDS011;18200;48.726;8.892;2023-08-17T06:23:29;15.88;;;11.23;;
31594;SDS011;18200;48.726;8.892;2023-08-17T06:27:29;21.58;;;11.38;;
31594;SDS011;18200;48.726;8.892;2023-08-17T06:31:30;17.52;;;10.98;;
31594;SDS011;18200;48.726;8.892;2023-08-17T06:35:30;16.80;;;11.23;;
31594;SDS011;18200;48.726;8.892;2023-08-17T06:39:30;15.63;;;9.98;;
31594;SDS011;18200;48.726;8.892;2023-08-17T06:43:31;11.00;;;8.70;;
31594;SDS011;18200;48.726;8.892;2023-08-17T06:47:31;9.77;;;7.38;;
31594;SDS011;18200;48.726;8.892;2023-08-17T06:51:31;8.10;;;6.97;;
31594;SDS011;18200;48.726;8.892;2023-08-17T06:55:32;9.45;;;7.93;;
31594;SDS011;18200;48.726;8.892;2023-08-17T06:59:32;11.77;;;7.78;;
31594;SDS011;18200;48.726;8.892;2023-08-17T07:03:35;8.82;;;7.70;;
31594;SDS011;18200;48.726;8.892;2023-08-17T07:07:36;9.52;;;7.90;;
31594;SDS011;18200;48.726;8.892;2023-08-17T07:11:36;9.73;;;8.07;;
31594;SDS011;18200;48.726;8.892;2023-08-17T07:15:37;10.93;;;7.55;;
31594;SDS011;18200;48.726;8.892;2023-08-17T07:19:37;11.15;;;8.73;;
31594;SDS011;18200;48.726;8.892;2023-08-17T07:23:38;10.63;;;9.15;;
31594;SDS011;18200;48.726;8.892;2023-08-17T07:27:41;9.68;;;7.25;;
31594;SDS011;18200;48.726;8.892;2023-08-17T07:31:42;10.60;;;9.00;;
31594;SDS011;18200;48.726;8.892;2023-08-17T07:35:42;8.38;;;7.47;;
31594;SDS011;18200;48.726;8.892;2023-08-17T07:39:42;9.32;;;7.32;;
31594;SDS011;18200;48.726;8.892;2023-08-17T07:43:43;9.63;;;7.32;;
31594;SDS011;18200;48.726;8.892;2023-08-17T07:47:43;9.65;;;8.25;;
31594;SDS011;18200;48.726;8.892;2023-08-17T07:51:44;9.10;;;6.82;;
31594;SDS011;18200;48.726;8.892;2023-08-17T07:55:44;8.00;;;7.20;;
31594;SDS011;18200;48.726;8.892;2023-08-17T07:59:45;6.82;;;5.88;;
31594;SDS011;18200;48.726;8.892;2023-08-17T08:03:45;8.05;;;6.30;;
31594;SDS011;18200;48.726;8.892;2023-08-17T08:07:46;8.30;;;6.63;;
31594;SDS011;18200;48.726;8.892;2023-08-17T08:11:48;11.20;;;6.55;;
31594;SDS011;18200;48.726;8.892;2023-08-17T08:15:48;14.25;;;6.28;;
31594;SDS011;18200;48.726;8.892;2023-08-17T08:19:49;8.73;;;7.05;;
31594;SDS011;18200;48.726;8.892;2023-08-17T08:23:51;7.50;;;6.75;;
31594;SDS011;18200;48.726;8.892;2023-08-17T08:27:51;8.18;;;6.60;;
31594;SDS011;18200;48.726;8.892;2023-08-17T08:31:51;10.48;;;7.57;;
31594;SDS011;18200;48.726;8.892;2023-08-17T08:35:52;8.45;;;7.15;;
31594;SDS011;18200;48.726;8.892;2023-08-17T08:39:53;11.60;;;7.45;;
31594;SDS011;18200;48.726;8.892;2023-08-17T08:43:55;8.43;;;6.88;;
31594;SDS011;18200;48.726;8.892;2023-08-17T08:47:56;9.45;;;6.28;;
31594;SDS011;18200;48.726;8.892;2023-08-17T08:51:57;10.02;;;6.78;;
31594;SDS011;18200;48.726;8.892;2023-08-17T08:56:00;8.13;;;6.25;;
31594;SDS011;18200;48.726;8.892;2023-08-17T09:00:01;9.55;;;6.10;;
31594;SDS011;18200;48.726;8.892;2023-08-17T09:04:02;7.90;;;5.53;;
31594;SDS011;18200;48.726;8.892;2023-08-17T09:08:04;7.28;;;5.57;;
31594;SDS011;18200;48.726;8.892;2023-08-17T09:12:08;7.30;;;5.63;;
31594;SDS011;18200;48.726;8.892;2023-08-17T09:16:09;7.50;;;5.53;;
31594;SDS011;18200;48.726;8.892;2023-08-17T09:20:10;6.82;;;6.00;;
31594;SDS011;18200;48.726;8.892;2023-08-17T09:24:11;6.72;;;5.53;;
31594;SDS011;18200;48.726;8.892;2023-08-17T09:28:13;8.52;;;5.88;;
31594;SDS011;18200;48.726;8.892;2023-08-17T09:32:14;8.20;;;5.13;;
31594;SDS011;18200;48.726;8.892;2023-08-17T09:36:19;6.47;;;5.00;;
31594;SDS011;18200;48.726;8.892;2023-08-17T09:40:20;7.90;;;5.15;;
31594;SDS011;18200;48.726;8.892;2023-08-17T09:44:20;8.83;;;5.60;;
31594;SDS011;18200;48.726;8.892;2023-08-17T09:48:22;9.68;;;6.38;;
31594;SDS011;18200;48.726;8.892;2023-08-17T09:52:22;6.72;;;5.70;;
31594;SDS011;18200;48.726;8.892;2023-08-17T09:56:26;6.60;;;5.03;;
31594;SDS011;18200;48.726;8.892;2023-08-17T10:00:27;7.35;;;5.40;;
31594;SDS011;18200;48.726;8.892;2023-08-17T10:04:27;7.85;;;4.38;;
31594;SDS011;18200;48.726;8.892;2023-08-17T10:08:30;8.48;;;4.60;;
31594;SDS011;18200;48.726;8.892;2023-08-17T10:12:37;7.55;;;5.65;;
31594;SDS011;18200;48.726;8.892;2023-08-17T10:16:45;5.85;;;5.25;;
31594;SDS011;18200;48.726;8.892;2023-08-17T10:20:54;6.22;;;5.20;;
31594;SDS011;18200;48.726;8.892;2023-08-17T10:25:02;6.95;;;5.03;;
31594;SDS011;18200;48.726;8.892;2023-08-17T10:29:05;6.70;;;3.87;;
31594;SDS011;18200;48.726;8.892;2023-08-17T10:33:06;8.02;;;4.53;;
31594;SDS011;18200;48.726;8.892;2023-08-17T10:37:07;5.00;;;4.50;;
31594;SDS011;18200;48.726;8.892;2023-08-17T10:41:12;10.00;;;5.40;;
31594;SDS011;18200;48.726;8.892;2023-08-17T10:49:26;8.05;;;5.20;;
31594;SDS011;18200;48.726;8.892;2023-08-17T10:53:27;6.82;;;5.18;;
31594;SDS011;18200;48.726;8.892;2023-08-17T10:57:34;7.85;;;4.57;;
31594;SDS011;18200;48.726;8.892;2023-08-17T11:01:36;7.37;;;5.27;;
31594;SDS011;18200;48.726;8.892;2023-08-17T11:05:41;7.57;;;4.80;;
31594;SDS011;18200;48.726;8.892;2023-08-17T11:09:56;6.20;;;4.97;;
31594;SDS011;18200;48.726;8.892;2023-08-17T11:13:57;6.60;;;4.80;;
31594;SDS011;18200;48.726;8.892;2023-08-17T11:17:58;4.87;;;4.43;;
31594;SDS011;18200;48.726;8.892;2023-08-17T11:21:58;5.72;;;4.10;;
31594;SDS011;18200;48.726;8.892;2023-08-17T11:25:59;8.73;;;4.20;;
31594;SDS011;18200;48.726;8.892;2023-08-17T11:30:00;5.10;;;4.60;;
31594;SDS011;18200;48.726;8.892;2023-08-17T11:34:00;6.15;;;4.65;;
31594;SDS011;18200;48.726;8.892;2023-08-17T11:38:01;5.53;;;4.70;;
31594;SDS011;18200;48.726;8.892;2023-08-17T11:42:03;5.35;;;4.25;;
31594;SDS011;18200;48.726;8.892;2023-08-17T11:46:04;6.78;;;4.50;;
31594;SDS011;18200;48.726;8.892;2023-08-17T11:50:05;5.00;;;4.43;;
31594;SDS011;18200;48.726;8.892;2023-08-17T11:54:08;8.55;;;4.78;;
31594;SDS011;18200;48.726;8.892;2023-08-17T11:58:08;7.05;;;4.55;;
31594;SDS011;18200;48.726;8.892;2023-08-17T12:02:09;5.30;;;4.40;;
31594;SDS011;18200;48.726;8.892;2023-08-17T12:06:10;6.00;;;4.43;;
31594;SDS011;18200;48.726;8.892;2023-08-17T12:10:12;5.78;;;4.65;;
31594;SDS011;18200;48.726;8.892;2023-08-17T12:14:13;8.27;;;4.53;;
31594;SDS011;18200;48.726;8.892;2023-08-17T12:18:13;5.40;;;4.25;;
31594;SDS011;18200;48.726;8.892;2023-08-17T12:22:16;8.48;;;4.82;;
31594;SDS011;18200;48.726;8.892;2023-08-17T12:26:18;7.50;;;5.32;;
31594;SDS011;18200;48.726;8.892;2023-08-17T12:30:29;9.45;;;7.07;;
31594;SDS011;18200;48.726;8.892;2023-08-17T12:34:32;12.30;;;7.40;;
31594;SDS011;18200;48.726;8.892;2023-08-17T12:38:32;10.52;;;7.13;;
31594;SDS011;18200;48.726;8.892;2023-08-17T12:42:33;12.10;;;6.10;;
31594;SDS011;18200;48.726;8.892;2023-08-17T12:46:33;7.60;;;4.00;;
31594;SDS011;18200;48.726;8.892;2023-08-17T12:50:34;12.88;;;5.53;;
31594;SDS011;18200;48.726;8.892;2023-08-17T12:54:35;9.45;;;5.88;;
31594;SDS011;18200;48.726;8.892;2023-08-17T12:58:35;17.48;;;7.60;;
31594;SDS011;18200;48.726;8.892;2023-08-17T13:02:35;14.18;;;8.00;;
31594;SDS011;18200;48.726;8.892;2023-08-17T13:06:36;12.73;;;7.63;;
31594;SDS011;18200;48.726;8.892;2023-08-17T13:10:36;17.00;;;8.32;;
31594;SDS011;18200;48.726;8.892;2023-08-17T13:14:37;14.75;;;9.35;;
31594;SDS011;18200;48.726;8.892;2023-08-17T13:18:37;14.73;;;9.93;;
31594;SDS011;18200;48.726;8.892;2023-08-17T13:22:38;22.35;;;13.45;;
31594;SDS011;18200;48.726;8.892;2023-08-17T13:26:38;19.33;;;15.55;;
31594;SDS011;18200;48.726;8.892;2023-08-17T13:30:39;17.73;;;14.82;;
31594;SDS011;18200;48.726;8.892;2023-08-17T13:34:42;18.83;;;13.80;;
31594;SDS011;18200;48.726;8.892;2023-08-17T13:38:42;22.40;;;16.45;;
31594;SDS011;18200;48.726;8.892;2023-08-17T13:42:42;22.65;;;17.02;;
31594;SDS011;18200;48.726;8.892;2023-08-17T13:46:43;22.05;;;16.27;;
31594;SDS011;18200;48.726;8.892;2023-08-17T13:50:43;25.85;;;17.98;;
31594;SDS011;18200;48.726;8.892;2023-08-17T13:54:44;19.80;;;15.43;;
31594;SDS011;18200;48.726;8.892;2023-08-17T13:58:45;23.17;;;17.95;;
31594;SDS011;18200;48.726;8.892;2023-08-17T14:02:46;21.30;;;17.30;;
31594;SDS011;18200;48.726;8.892;2023-08-17T14:06:46;23.65;;;18.42;;
31594;SDS011;18200;48.726;8.892;2023-08-17T14:10:47;26.27;;;19.13;;
31594;SDS011;18200;48.726;8.892;2023-08-17T14:14:47;27.20;;;19.90;;
31594;SDS011;18200;48.726;8.892;2023-08-17T14:18:47;22.53;;;16.50;;
31594;SDS011;18200;48.726;8.892;2023-08-17T14:22:48;24.60;;;19.13;;
31594;SDS011;18200;48.726;8.892;2023-08-17T14:26:48;22.10;;;17.70;;
31594;SDS011;18200;48.726;8.892;2023-08-17T14:30:49;22.30;;;16.98;;
31594;SDS011;18200;48.726;8.892;2023-08-17T14:34:49;24.35;;;17.92;;
31594;SDS011;18200;48.726;8.892;2023-08-17T14:38:49;20.30;;;16.50;;
31594;SDS011;18200;48.726;8.892;2023-08-17T14:42:50;19.63;;;15.52;;
31594;SDS011;18200;48.726;8.892;2023-08-17T14:46:51;21.88;;;16.50;;
31594;SDS011;18200;48.726;8.892;2023-08-17T14:50:52;21.95;;;14.95;;
31594;SDS011;18200;48.726;8.892;2023-08-17T14:54:53;18.65;;;14.15;;
31594;SDS011;18200;48.726;8.892;2023-08-17T14:58:53;12.90;;;11.23;;
31594;SDS011;18200;48.726;8.892;2023-08-17T15:02:55;15.90;;;11.07;;
31594;SDS011;18200;48.726;8.892;2023-08-17T15:06:57;16.05;;;11.30;;
31594;SDS011;18200;48.726;8.892;2023-08-17T15:10:57;9.77;;;8.48;;
31594;SDS011;18200;48.726;8.892;2023-08-17T15:15:02;9.63;;;7.80;;
31594;SDS011;18200;48.726;8.892;2023-08-17T15:19:02;9.18;;;6.80;;
31594;SDS011;18200;48.726;8.892;2023-08-17T15:23:03;10.52;;;6.65;;
31594;SDS011;18200;48.726;8.892;2023-08-17T15:27:04;11.50;;;6.93;;
31594;SDS011;18200;48.726;8.892;2023-08-17T15:31:04;10.35;;;6.47;;
31594;SDS011;18200;48.726;8.892;2023-08-17T15:35:05;10.70;;;7.03;;
31594;SDS011;18200;48.726;8.892;2023-08-17T15:39:06;7.93;;;6.38;;
31594;SDS011;18200;48.726;8.892;2023-08-17T15:43:07;10.27;;;6.70;;
31594;SDS011;18200;48.726;8.892;2023-08-17T15:47:07;8.73;;;6.10;;
31594;SDS011;18200;48.726;8.892;2023-08-17T15:51:08;10.65;;;6.40;;
31594;SDS011;18200;48.726;8.892;2023-08-17T15:55:08;7.60;;;5.65;;
31594;SDS011;18200;48.726;8.892;2023-08-17T15:59:08;9.25;;;6.00;;
31594;SDS011;18200;48.726;8.892;2023-08-17T16:03:09;9.27;;;6.37;;
31594;SDS011;18200;48.726;8.892;2023-08-17T16:07:09;9.07;;;6.60;;
31594;SDS011;18200;48.726;8.892;2023-08-17T16:11:10;8.00;;;6.53;;
31594;SDS011;18200;48.726;8.892;2023-08-17T16:15:10;8.88;;;5.65;;
31594;SDS011;18200;48.726;8.892;2023-08-17T16:19:11;10.05;;;5.65;;
31594;SDS011;18200;48.726;8.892;2023-08-17T16:23:11;7.03;;;4.97;;
31594;SDS011;18200;48.726;8.892;2023-08-17T16:27:11;6.90;;;4.90;;
31594;SDS011;18200;48.726;8.892;2023-08-17T16:31:12;6.23;;;4.70;;
31594;SDS011;18200;48.726;8.892;2023-08-17T16:35:12;6.13;;;4.55;;
31594;SDS011;18200;48.726;8.892;2023-08-17T16:39:14;8.27;;;5.30;;
31594;SDS011;18200;48.726;8.892;2023-08-17T16:43:14;7.53;;;4.47;;
31594;SDS011;18200;48.726;8.892;2023-08-17T16:47:15;12.02;;;5.22;;
31594;SDS011;18200;48.726;8.892;2023-08-17T16:51:15;9.93;;;4.63;;
31594;SDS011;18200;48.726;8.892;2023-08-17T16:55:15;6.40;;;4.80;;
31594;SDS011;18200;48.726;8.892;2023-08-17T16:59:17;7.20;;;5.07;;
31594;SDS011;18200;48.726;8.892;2023-08-17T17:03:17;7.20;;;4.90;;
31594;SDS011;18200;48.726;8.892;2023-08-17T17:07:17;7.80;;;5.93;;
31594;SDS011;18200;48.726;8.892;2023-08-17T17:11:18;10.40;;;5.90;;
31594;SDS011;18200;48.726;8.892;2023-08-17T17:15:18;6.97;;;5.30;;
31594;SDS011;18200;48.726;8.892;2023-08-17T17:19:18;5.85;;;5.13;;
31594;SDS011;18200;48.726;8.892;2023-08-17T17:23:19;6.95;;;5.70;;
31594;SDS011;18200;48.726;8.892;2023-08-17T17:27:19;8.83;;;5.60;;
31594;SDS011;18200;48.726;8.892;2023-08-17T17:31:19;8.77;;;6.30;;
31594;SDS011;18200;48.726;8.892;2023-08-17T17:35:20;8.90;;;6.07;;
31594;SDS011;18200;48.726;8.892;2023-08-17T17:39:20;10.00;;;6.60;;
31594;SDS011;18200;48.726;8.892;2023-08-17T17:43:21;7.75;;;6.45;;
31594;SDS011;18200;48.726;8.892;2023-08-17T17:47:24;15.13;;;6.75;;
31594;SDS011;18200;48.726;8.892;2023-08-17T17:51:24;9.63;;;6.20;;
31594;SDS011;18200;48.726;8.892;2023-08-17T17:55:25;10.37;;;7.10;;
31594;SDS011;18200;48.726;8.892;2023-08-17T17:59:25;11.33;;;7.20;;
31594;SDS011;18200;48.726;8.892;2023-08-17T18:03:25;9.10;;;6.97;;
31594;SDS011;18200;48.726;8.892;2023-08-17T18:07:26;10.63;;;7.00;;
31594;SDS011;18200;48.726;8.892;2023-08-17T18:11:26;8.70;;;6.93;;
31594;SDS011;18200;48.726;8.892;2023-08-17T18:15:26;11.23;;;7.18;;
31594;SDS011;18200;48.726;8.892;2023-08-17T18:19:27;13.25;;;7.82;;
31594;SDS011;18200;48.726;8.892;2023-08-17T18:23:27;10.10;;;7.38;;
31594;SDS011;18200;48.726;8.892;2023-08-17T18:27:29;12.07;;;7.15;;
31594;SDS011;18200;48.726;8.892;2023-08-17T18:31:30;9.73;;;7.05;;
31594;SDS011;18200;48.726;8.892;2023-08-17T18:35:30;11.30;;;7.72;;
31594;SDS011;18200;48.726;8.892;2023-08-17T18:39:31;12.20;;;7.43;;
31594;SDS011;18200;48.726;8.892;2023-08-17T18:43:31;14.32;;;8.75;;
31594;SDS011;18200;48.726;8.892;2023-08-17T18:47:31;11.38;;;7.57;;
31594;SDS011;18200;48.726;8.892;2023-08-17T18:51:32;14.18;;;8.48;;
31594;SDS011;18200;48.726;8.892;2023-08-17T18:55:32;12.20;;;8.05;;
31594;SDS011;18200;48.726;8.892;2023-08-17T18:59:32;9.82;;;7.88;;
31594;SDS011;18200;48.726;8.892;2023-08-17T19:03:33;10.07;;;7.50;;
31594;SDS011;18200;48.726;8.892;2023-08-17T19:07:34;10.68;;;7.82;;
31594;SDS011;18200;48.726;8.892;2023-08-17T19:11:34;12.88;;;8.68;;
31594;SDS011;18200;48.726;8.892;2023-08-17T19:15:35;12.43;;;9.15;;
31594;SDS011;18200;48.726;8.892;2023-08-17T19:19:35;9.27;;;8.18;;
31594;SDS011;18200;48.726;8.892;2023-08-17T19:23:35;11.25;;;9.35;;
31594;SDS011;18200;48.726;8.892;2023-08-17T19:27:36;16.38;;;10.00;;
31594;SDS011;18200;48.726;8.892;2023-08-17T19:31:36;12.98;;;10.32;;
31594;SDS011;18200;48.726;8.892;2023-08-17T19:35:37;12.77;;;10.80;;
31594;SDS011;18200;48.726;8.892;2023-08-17T19:39:37;12.38;;;9.23;;
31594;SDS011;18200;48.726;8.892;2023-08-17T19:43:37;10.95;;;9.20;;
31594;SDS011;18200;48.726;8.892;2023-08-17T19:47:38;11.25;;;9.63;;
31594;SDS011;18200;48.726;8.892;2023-08-17T19:51:38;13.13;;;10.07;;
31594;SDS011;18200;48.726;8.892;2023-08-17T19:55:39;13.25;;;9.45;;
31594;SDS011;18200;48.726;8.892;2023-08-17T19:59:40;15.50;;;9.90;;
31594;SDS011;18200;48.726;8.892;2023-08-17T20:03:40;12.68;;;10.35;;
31594;SDS011;18200;48.726;8.892;2023-08-17T20:07:40;12.20;;;9.68;;
31594;SDS011;18200;48.726;8.892;2023-08-17T20:11:41;11.50;;;8.73;;
31594;SDS011;18200;48.726;8.892;2023-08-17T20:15:41;15.88;;;10.35;;
31594;SDS011;18200;48.726;8.892;2023-08-17T20:19:42;11.13;;;9.07;;
31594;SDS011;18200;48.726;8.892;2023-08-17T20:23:42;18.10;;;10.55;;
31594;SDS011;18200;48.726;8.892;2023-08-17T20:27:46;11.60;;;10.00;;
31594;SDS011;18200;48.726;8.892;2023-08-17T20:31:46;18.05;;;10.18;;
31594;SDS011;18200;48.726;8.892;2023-08-17T20:35:48;12.30;;;10.47;;
31594;SDS011;18200;48.726;8.892;2023-08-17T20:39:50;14.05;;;11.23;;
31594;SDS011;18200;48.726;8.892;2023-08-17T20:43:51;16.05;;;11.30;;
31594;SDS011;18200;48.726;8.892;2023-08-17T20:47:52;14.25;;;11.02;;
31594;SDS011;18200;48.726;8.892;2023-08-17T20:51:53;13.35;;;11.27;;
31594;SDS011;18200;48.726;8.892;2023-08-17T20:55:53;12.25;;;10.07;;
31594;SDS011;18200;48.726;8.892;2023-08-17T20:59:54;11.73;;;9.63;;
31594;SDS011;18200;48.726;8.892;2023-08-17T21:03:54;14.32;;;11.18;;
31594;SDS011;18200;48.726;8.892;2023-08-17T21:07:55;18.65;;;11.48;;
31594;SDS011;18200;48.726;8.892;2023-08-17T21:11:56;11.15;;;9.35;;
31594;SDS011;18200;48.726;8.892;2023-08-17T21:16:05;13.05;;;11.60;;
31594;SDS011;18200;48.726;8.892;2023-08-17T21:20:06;13.30;;;10.30;;
31594;SDS011;18200;48.726;8.892;2023-08-17T21:24:08;14.02;;;10.98;;
31594;SDS011;18200;48.726;8.892;2023-08-17T21:28:09;16.65;;;11.50;;
31594;SDS011;18200;48.726;8.892;2023-08-17T21:32:09;12.33;;;10.57;;
31594;SDS011;18200;48.726;8.892;2023-08-17T21:36:09;11.10;;;9.93;;
31594;SDS011;18200;48.726;8.892;2023-08-17T21:40:13;13.85;;;12.10;;
31594;SDS011;18200;48.726;8.892;2023-08-17T21:44:13;18.55;;;12.10;;
31594;SDS011;18200;48.726;8.892;2023-08-17T21:48:13;14.82;;;11.07;;
31594;SDS011;18200;48.726;8.892;2023-08-17T21:52:14;15.03;;;11.97;;
31594;SDS011;18200;48.726;8.892;2023-08-17T21:56:15;18.10;;;12.77;;
31594;SDS011;18200;48.726;8.892;2023-08-17T22:00:15;16.00;;;12.60;;
31594;SDS011;18200;48.726;8.892;2023-08-17T22:04:16;12.55;;;11.20;;
31594;SDS011;18200;48.726;8.892;2023-08-17T22:08:16;17.15;;;12.80;;
31594;SDS011;18200;48.726;8.892;2023-08-17T22:12:17;13.30;;;11.45;;
31594;SDS011;18200;48.726;8.892;2023-08-17T22:16:17;15.30;;;11.50;;
31594;SDS011;18200;48.726;8.892;2023-08-17T22:20:17;14.35;;;10.52;;
31594;SDS011;18200;48.726;8.892;2023-08-17T22:24:18;18.15;;;12.50;;
31594;SDS011;18200;48.726;8.892;2023-08-17T22:28:21;13.50;;;11.10;;
31594;SDS011;18200;48.726;8.892;2023-08-17T22:32:21;18.92;;;12.50;;
31594;SDS011;18200;48.726;8.892;2023-08-17T22:36:22;15.57;;;11.30;;
31594;SDS011;18200;48.726;8.892;2023-08-17T22:40:22;15.02;;;10.40;;
31594;SDS011;18200;48.726;8.892;2023-08-17T22:44:22;12.20;;;10.88;;
31594;SDS011;18200;48.726;8.892;2023-08-17T22:48:23;14.70;;;10.50;;
31594;SDS011;18200;48.726;8.892;2023-08-17T22:52:23;11.85;;;10.25;;
31594;SDS011;18200;48.726;8.892;2023-08-17T22:56:24;14.85;;;10.93;;
31594;SDS011;18200;48.726;8.892;2023-08-17T23:00:25;12.02;;;10.70;;
31594;SDS011;18200;48.726;8.892;2023-08-17T23:04:25;13.90;;;10.57;;
31594;SDS011;18200;48.726;8.892;2023-08-17T23:08:25;20.33;;;11.13;;
31594;SDS011;18200;48.726;8.892;2023-08-17T23:12:26;16.38;;;11.18;;
31594;SDS011;18200;48.726;8.892;2023-08-17T23:16:27;14.00;;;10.90;;
31594;SDS011;18200;48.726;8.892;2023-08-17T23:20:27;17.08;;;10.85;;
31594;SDS011;18200;48.726;8.892;2023-08-17T23:24:28;13.25;;;11.45;;
31594;SDS011;18200;48.726;8.892;2023-08-17T23:28:28;16.67;;;11.60;;
31594;SDS011;18200;48.726;8.892;2023-08-17T23:32:28;17.92;;;11.65;;
31594;SDS011;18200;48.726;8.892;2023-08-17T23:36:29;13.77;;;11.20;;
31594;SDS011;18200;48.726;8.892;2023-08-17T23:40:29;13.57;;;10.55;;
31594;SDS011;18200;48.726;8.892;2023-08-17T23:44:30;11.68;;;10.48;;
31594;SDS011;18200;48.726;8.892;2023-08-17T23:48:30;14.10;;;11.02;;
31594;SDS011;18200;48.726;8.892;2023-08-17T23:52:31;13.05;;;10.55;;
31594;SDS011;18200;48.726;8.892;2023-08-17T23:56:32;18.95;;;10.45;;
